createdAt,value
2018-09-04T00:01:02.354Z,99.38
2018-09-04T00:03:35.241Z,98.99
2018-09-04T00:06:08.288Z,99.35
2018-09-04T00:08:41.721Z,99.46
2018-09-04T00:11:14.710Z,99.28
2018-09-04T00:13:43.598Z,99.92
2018-09-04T00:16:12.492Z,99.42
2018-09-04T00:18:41.663Z,100.00
2018-09-04T00:21:10.558Z,99.97
2018-09-04T00:23:39.689Z,99.56
2018-09-04T00:26:08.584Z,99.99
2018-09-04T00:28:39.554Z,100.00
2018-09-04T00:31:08.579Z,99.92
2018-09-04T00:33:39.478Z,99.77
2018-09-04T00:36:09.210Z,99.18
2018-09-04T00:38:38.301Z,99.86
2018-09-04T00:41:25.840Z,99.45
2018-09-04T00:44:02.821Z,99.27
2018-09-04T00:46:31.737Z,98.81
2018-09-04T00:49:00.641Z,99.32
2018-09-04T00:51:31.553Z,98.81
2018-09-04T00:57:06.712Z,98.86
2018-09-04T00:59:35.591Z,98.34
2018-09-04T01:02:04.479Z,98.37
2018-09-04T01:04:41.577Z,98.76
2018-09-04T01:07:12.078Z,98.55
2018-09-04T01:09:41.147Z,98.88
2018-09-04T01:12:10.284Z,100.00
2018-09-04T01:14:41.515Z,100.00
2018-09-04T01:17:10.608Z,99.87
2018-09-04T01:19:39.745Z,99.32
2018-09-04T01:22:08.650Z,99.90
2018-09-04T01:24:37.596Z,98.46
2018-09-04T01:27:06.501Z,98.90
2018-09-04T01:29:35.457Z,99.24
2018-09-04T01:32:04.367Z,99.70
2018-09-04T01:34:33.271Z,99.01
2018-09-04T01:37:02.172Z,99.38
2018-09-04T01:39:32.103Z,99.59
2018-09-04T01:42:01.150Z,99.18
2018-09-04T01:44:30.060Z,99.89
2018-09-04T01:46:58.959Z,100.00
2018-09-04T01:49:27.878Z,100.00
2018-09-04T01:51:56.942Z,99.62
2018-09-04T01:54:25.816Z,99.59
2018-09-04T01:56:54.720Z,99.50
2018-09-04T01:59:38.337Z,99.22
2018-09-04T02:02:07.232Z,100.00
2018-09-04T02:04:36.123Z,99.80
2018-09-04T02:07:09.961Z,98.79
2018-09-04T02:09:39.865Z,99.79
2018-09-04T02:12:10.809Z,99.08
2018-09-04T02:14:39.824Z,98.90
2018-09-04T02:17:08.757Z,98.38
2018-09-04T02:19:37.697Z,98.90
2018-09-04T02:22:06.644Z,99.13
2018-09-04T02:24:35.525Z,98.48
2018-09-04T02:27:21.447Z,98.43
2018-09-04T02:30:02.596Z,99.04
2018-09-04T02:32:31.508Z,98.86
2018-09-04T02:35:00.485Z,98.93
2018-09-04T02:37:29.539Z,99.45
2018-09-04T02:40:09.677Z,99.20
2018-09-04T02:42:44.210Z,98.86
2018-09-04T02:45:22.914Z,99.98
2018-09-04T02:47:51.805Z,99.65
2018-09-04T02:50:21.207Z,99.70
2018-09-04T02:52:57.068Z,99.75
2018-09-04T02:55:36.710Z,100.00
2018-09-04T02:58:05.824Z,99.90
2018-09-04T03:00:35.791Z,98.93
2018-09-04T03:03:08.613Z,99.42
2018-09-04T03:05:37.787Z,100.00
2018-09-04T03:08:06.839Z,100.00
2018-09-04T03:10:35.735Z,100.00
2018-09-04T03:13:08.582Z,100.00
2018-09-04T03:18:37.198Z,100.00
2018-09-04T03:21:14.018Z,100.00
2018-09-04T03:23:42.913Z,99.97
2018-09-04T03:26:11.777Z,100.00
2018-09-04T03:28:48.117Z,99.87
2018-09-04T03:31:17.195Z,99.95
2018-09-04T03:33:46.113Z,99.62
2018-09-04T03:36:15.006Z,99.74
2018-09-04T03:38:43.917Z,99.85
2018-09-04T03:41:15.122Z,100.00
2018-09-04T03:43:44.058Z,100.00
2018-09-04T03:46:20.940Z,100.00
2018-09-04T03:48:49.898Z,100.00
2018-09-04T03:51:38.932Z,100.00
2018-09-04T03:54:08.944Z,100.00
2018-09-04T03:56:43.277Z,99.85
2018-09-04T03:59:16.276Z,100.00
2018-09-04T04:01:46.822Z,99.87
2018-09-04T04:04:15.789Z,100.00
2018-09-04T04:06:44.678Z,100.00
2018-09-04T04:09:13.704Z,100.00
2018-09-04T04:11:42.604Z,100.00
2018-09-04T04:14:12.568Z,100.00
2018-09-04T04:16:47.124Z,100.00
2018-09-04T04:19:22.865Z,100.00
2018-09-04T04:21:52.911Z,100.00
2018-09-04T04:24:35.026Z,100.00
2018-09-04T04:27:11.443Z,100.00
2018-09-04T04:29:40.367Z,100.00
2018-09-04T04:32:12.841Z,100.00
2018-09-04T04:34:45.521Z,100.00
2018-09-04T04:37:14.425Z,100.00
2018-09-04T04:39:59.986Z,100.00
2018-09-04T04:42:29.014Z,100.00
2018-09-04T04:44:57.931Z,100.00
2018-09-04T04:47:32.294Z,100.00
2018-09-04T04:50:01.303Z,100.00
2018-09-04T04:52:30.229Z,100.00
2018-09-04T04:54:59.110Z,100.00
2018-09-04T04:57:28.002Z,100.00
2018-09-04T05:00:02.574Z,100.00
2018-09-04T05:02:31.822Z,100.00
2018-09-04T05:05:02.817Z,100.00
2018-09-04T05:07:36.875Z,100.00
2018-09-04T05:10:19.286Z,100.00
2018-09-04T05:12:48.491Z,100.00
2018-09-04T05:15:17.483Z,100.00
2018-09-04T05:17:51.992Z,100.00
2018-09-04T05:20:24.211Z,100.00
2018-09-04T05:23:00.733Z,100.00
2018-09-04T05:25:36.248Z,100.00
2018-09-04T05:28:05.277Z,100.00
2018-09-04T05:30:57.194Z,100.00
2018-09-04T05:33:32.185Z,100.00
2018-09-04T05:36:03.137Z,100.00
2018-09-04T05:38:36.685Z,100.00
2018-09-04T05:41:12.215Z,100.00
2018-09-04T05:43:59.624Z,100.00
2018-09-04T05:46:39.015Z,100.00
2018-09-04T05:49:08.533Z,100.00
2018-09-04T05:51:41.593Z,100.00
2018-09-04T05:54:10.590Z,100.00
2018-09-04T05:56:53.107Z,100.00
2018-09-04T05:59:22.042Z,100.00
2018-09-04T06:01:52.029Z,100.00
2018-09-04T06:04:28.189Z,100.00
2018-09-04T06:06:58.104Z,100.00
2018-09-04T06:09:35.405Z,100.00
2018-09-04T06:12:05.413Z,100.00
2018-09-04T06:14:46.983Z,100.00
2018-09-04T06:17:17.907Z,100.00
2018-09-04T06:20:03.346Z,100.00
2018-09-04T06:22:39.381Z,100.00
2018-09-04T06:25:10.338Z,100.00
2018-09-04T06:27:46.808Z,100.00
2018-09-04T06:30:40.065Z,100.00
2018-09-04T06:33:17.145Z,100.00
2018-09-04T06:35:46.031Z,100.00
2018-09-04T06:38:20.641Z,100.00
2018-09-04T06:40:59.357Z,100.00
2018-09-04T06:43:34.976Z,100.00
2018-09-04T06:46:08.104Z,100.00
2018-09-04T06:48:37.380Z,100.00
2018-09-04T06:51:09.724Z,100.00
2018-09-04T06:53:44.408Z,100.00
2018-09-04T06:56:21.594Z,100.00
2018-09-04T06:58:50.582Z,100.00
2018-09-04T07:01:20.463Z,100.00
2018-09-04T07:03:49.571Z,100.00
2018-09-04T07:06:26.692Z,99.96
2018-09-04T07:09:08.358Z,100.00
2018-09-04T07:11:48.967Z,100.00
2018-09-04T07:14:22.241Z,100.00
2018-09-04T07:16:52.779Z,100.00
2018-09-04T07:19:24.987Z,100.00
2018-09-04T07:21:56.020Z,99.96
2018-09-04T07:24:29.153Z,100.00
2018-09-04T07:27:04.495Z,99.98
2018-09-04T07:29:34.358Z,99.73
2018-09-04T07:32:03.257Z,99.86
2018-09-04T07:34:32.157Z,99.66
2018-09-04T07:37:01.056Z,99.77
2018-09-04T07:39:35.414Z,99.62
2018-09-04T07:42:07.736Z,99.61
2018-09-04T07:44:49.125Z,99.05
2018-09-04T07:47:18.216Z,99.03
2018-09-04T07:49:47.205Z,99.19
2018-09-04T07:52:16.378Z,98.73
2018-09-04T07:57:48.972Z,98.45
2018-09-04T08:00:17.814Z,98.20
2018-09-04T08:02:46.864Z,98.04
2018-09-04T08:05:15.779Z,97.94
2018-09-04T08:07:44.684Z,98.08
2018-09-04T08:10:19.815Z,97.62
2018-09-04T08:12:48.692Z,97.92
2018-09-04T08:15:17.626Z,97.58
2018-09-04T08:17:48.809Z,98.41
2018-09-04T08:20:27.722Z,97.89
2018-09-04T08:22:56.791Z,97.90
2018-09-04T08:25:26.501Z,97.87
2018-09-04T08:27:55.458Z,97.87
2018-09-04T08:30:24.732Z,98.34
2018-09-04T08:32:53.690Z,98.32
2018-09-04T08:35:27.515Z,98.05
2018-09-04T08:37:59.494Z,98.18
2018-09-04T08:40:29.534Z,97.66
2018-09-04T08:48:53.080Z,96.25
2018-09-04T08:51:22.039Z,95.23
2018-09-04T08:53:50.905Z,95.00
2018-09-04T08:56:19.972Z,94.58
2018-09-04T08:58:48.858Z,94.22
2018-09-04T09:01:17.748Z,93.89
2018-09-04T09:06:45.228Z,94.07
2018-09-04T09:09:14.136Z,93.01
2018-09-04T09:11:49.180Z,92.40
2018-09-04T09:14:18.107Z,92.32
2018-09-04T09:16:47.060Z,91.28
2018-09-04T09:19:26.319Z,90.66
2018-09-04T09:21:55.221Z,90.52
2018-09-04T09:24:24.123Z,90.19
2018-09-04T09:26:53.013Z,90.00
2018-09-04T09:29:21.910Z,90.24
2018-09-04T09:31:56.515Z,89.55
2018-09-04T09:34:25.427Z,89.55
2018-09-04T09:36:54.565Z,89.55
2018-09-04T09:39:23.789Z,89.57
2018-09-04T09:42:06.139Z,89.34
2018-09-04T09:44:35.140Z,89.66
2018-09-04T09:47:10.025Z,90.03
2018-09-04T09:49:42.251Z,90.61
2018-09-04T09:52:27.711Z,89.78
2018-09-04T09:55:01.434Z,89.04
2018-09-04T09:57:43.285Z,89.65
2018-09-04T10:00:31.117Z,89.33
2018-09-04T10:03:04.056Z,89.69
2018-09-04T10:08:33.201Z,89.45
2018-09-04T10:11:02.263Z,88.79
2018-09-04T10:13:49.324Z,89.10
2018-09-04T10:16:22.659Z,88.58
2018-09-04T10:19:02.099Z,88.58
2018-09-04T10:21:31.244Z,88.65
2018-09-04T10:24:04.054Z,89.04
2018-09-04T10:26:40.081Z,89.06
2018-09-04T10:29:14.789Z,88.73
2018-09-04T10:31:50.364Z,88.14
2018-09-04T10:34:19.257Z,88.10
2018-09-04T10:36:48.169Z,87.01
2018-09-04T10:39:28.002Z,86.61
2018-09-04T10:41:56.887Z,87.07
2018-09-04T10:44:28.207Z,85.67
2018-09-04T10:46:57.039Z,85.71
2018-09-04T10:49:25.957Z,85.99
2018-09-04T10:51:54.831Z,85.78
2018-09-04T10:54:23.715Z,84.10
2018-09-04T10:56:52.683Z,83.98
2018-09-04T10:59:21.587Z,83.92
2018-09-04T11:01:55.529Z,83.02
2018-09-04T11:04:28.251Z,83.42
2018-09-04T11:06:57.174Z,82.82
2018-09-04T11:09:26.227Z,83.31
2018-09-04T11:17:56.058Z,81.87
2018-09-04T11:20:24.968Z,81.28
2018-09-04T11:23:13.592Z,81.39
2018-09-04T11:25:45.856Z,81.07
2018-09-04T11:28:14.959Z,79.99
2018-09-04T11:30:43.854Z,81.09
2018-09-04T11:33:37.078Z,80.22
2018-09-04T11:36:15.965Z,80.13
2018-09-04T11:38:59.188Z,78.53
2018-09-04T11:41:28.213Z,79.03
2018-09-04T11:43:57.176Z,79.61
2018-09-04T11:46:44.710Z,79.75
2018-09-04T11:49:17.342Z,79.99
2018-09-04T11:52:04.946Z,78.61
2018-09-04T11:54:40.981Z,77.16
2018-09-04T11:57:14.345Z,77.41
2018-09-04T11:59:44.734Z,75.58
2018-09-04T12:02:44.881Z,75.65
2018-09-04T12:05:13.784Z,75.45
2018-09-04T12:07:42.821Z,75.73
2018-09-04T12:10:11.682Z,75.05
2018-09-04T12:13:00.439Z,74.73
2018-09-04T12:15:41.992Z,73.10
2018-09-04T12:18:17.218Z,72.60
2018-09-04T12:20:54.255Z,72.07
2018-09-04T12:23:27.906Z,71.39
2018-09-04T12:26:06.536Z,71.70
2018-09-04T12:28:38.628Z,71.08
2018-09-04T12:31:09.867Z,70.76
2018-09-04T12:33:44.120Z,70.01
2018-09-04T12:36:16.768Z,70.26
2018-09-04T12:39:06.435Z,70.20
2018-09-04T12:41:50.061Z,69.76
2018-09-04T12:44:23.074Z,67.79
2018-09-04T12:46:57.083Z,68.42
2018-09-04T12:49:26.056Z,67.68
2018-09-04T12:51:57.025Z,68.09
2018-09-04T12:54:25.961Z,68.11
2018-09-04T12:56:54.849Z,66.99
2018-09-04T12:59:23.698Z,67.17
2018-09-04T13:01:52.566Z,67.46
2018-09-04T13:04:22.465Z,68.00
2018-09-04T13:06:55.177Z,67.60
2018-09-04T13:09:24.058Z,67.02
2018-09-04T13:12:05.343Z,67.21
2018-09-04T13:17:27.289Z,66.51
2018-09-04T13:19:57.187Z,65.66
2018-09-04T13:22:39.111Z,65.27
2018-09-04T13:25:08.066Z,65.48
2018-09-04T13:27:47.890Z,66.33
2018-09-04T13:30:20.193Z,66.81
2018-09-04T13:33:01.985Z,65.12
2018-09-04T13:35:36.219Z,65.04
2018-09-04T13:38:09.411Z,65.44
2018-09-04T13:40:42.544Z,65.78
2018-09-04T13:43:11.527Z,65.53
2018-09-04T13:45:44.717Z,65.45
2018-09-04T13:48:13.675Z,65.37
2018-09-04T13:50:44.604Z,65.08
2018-09-04T13:56:06.877Z,63.84
2018-09-04T13:58:35.846Z,63.38
2018-09-04T14:01:10.404Z,64.23
2018-09-04T14:03:43.258Z,64.08
2018-09-04T14:06:16.167Z,64.02
2018-09-04T14:08:45.136Z,64.93
2018-09-04T14:11:14.096Z,65.52
2018-09-04T14:13:43.096Z,66.10
2018-09-04T14:16:17.741Z,65.89
2018-09-04T14:18:54.948Z,65.79
2018-09-04T14:21:33.858Z,65.36
2018-09-04T14:24:04.002Z,64.90
2018-09-04T14:26:33.000Z,64.85
2018-09-04T14:29:07.566Z,64.56
2018-09-04T14:31:33.820Z,64.54
2018-09-04T14:34:03.825Z,63.71
2018-09-04T14:36:33.115Z,63.97
2018-09-04T14:39:07.774Z,63.59
2018-09-04T14:41:41.135Z,62.89
2018-09-04T14:44:30.543Z,62.71
2018-09-04T14:47:01.458Z,63.12
2018-09-04T14:49:30.411Z,62.32
2018-09-04T14:51:59.360Z,62.54
2018-09-04T14:54:35.179Z,62.60
2018-09-04T14:57:04.176Z,61.95
2018-09-04T14:59:36.476Z,62.22
2018-09-04T15:02:05.376Z,62.80
2018-09-04T15:04:38.882Z,62.76
2018-09-04T15:07:19.363Z,62.60
2018-09-04T15:09:55.176Z,62.29
2018-09-04T15:12:34.089Z,63.13
2018-09-04T15:15:13.959Z,62.43
2018-09-04T15:17:56.370Z,61.95
2018-09-04T15:20:26.699Z,63.31
2018-09-04T15:22:56.664Z,63.98
2018-09-04T15:25:26.695Z,64.23
2018-09-04T15:27:57.613Z,63.34
2018-09-04T15:30:27.558Z,62.82
2018-09-04T15:32:56.496Z,62.12
2018-09-04T15:35:25.557Z,62.38
2018-09-04T15:37:54.558Z,62.72
2018-09-04T15:40:30.757Z,63.21
2018-09-04T15:42:59.928Z,62.99
2018-09-04T15:45:30.325Z,61.63
2018-09-04T15:48:00.752Z,61.79
2018-09-04T15:50:29.907Z,62.31
2018-09-04T15:52:58.856Z,62.92
2018-09-04T15:58:21.619Z,69.47
2018-09-04T16:00:52.578Z,71.36
2018-09-04T16:03:23.691Z,72.22
2018-09-04T16:05:53.648Z,72.55
2018-09-04T16:08:26.233Z,73.58
2018-09-04T16:10:55.488Z,69.36
2018-09-04T16:13:27.960Z,69.74
2018-09-04T16:16:02.816Z,70.05
2018-09-04T16:18:51.442Z,69.92
2018-09-04T16:21:22.417Z,71.61
2018-09-04T16:23:53.372Z,74.30
2018-09-04T16:26:41.984Z,75.92
2018-09-04T16:29:14.783Z,75.26
2018-09-04T16:31:51.042Z,75.00
2018-09-04T16:34:25.483Z,75.68
2018-09-04T16:36:56.349Z,74.95
2018-09-04T16:39:26.665Z,74.91
2018-09-04T16:41:58.890Z,74.65
2018-09-04T16:44:28.911Z,74.47
2018-09-04T16:47:00.971Z,75.16
2018-09-04T16:49:34.774Z,75.16
2018-09-04T16:52:03.685Z,74.90
2018-09-04T16:54:32.612Z,73.85
2018-09-04T16:57:01.587Z,74.02
2018-09-04T16:59:30.753Z,74.30
2018-09-04T17:02:03.409Z,74.15
2018-09-04T17:04:33.365Z,73.89
2018-09-04T17:07:06.936Z,73.82
2018-09-04T17:09:37.889Z,73.46
2018-09-04T17:12:06.815Z,73.54
2018-09-04T17:14:36.714Z,73.36
2018-09-04T17:17:06.719Z,73.37
2018-09-04T17:19:42.136Z,72.77
2018-09-04T17:24:50.443Z,73.57
2018-09-04T17:27:20.409Z,72.56
2018-09-04T17:29:49.406Z,72.98
2018-09-04T17:32:23.633Z,73.74
2018-09-04T17:34:55.574Z,74.18
2018-09-04T17:37:25.517Z,74.56
2018-09-04T17:39:54.870Z,74.50
2018-09-04T17:42:27.062Z,75.38
2018-09-04T17:44:55.969Z,75.40
2018-09-04T17:47:27.929Z,75.82
2018-09-04T17:49:57.916Z,76.04
2018-09-04T17:52:27.836Z,75.69
2018-09-04T17:55:02.104Z,76.36
2018-09-04T17:57:32.184Z,76.18
2018-09-04T18:00:13.254Z,76.40
2018-09-04T18:02:42.207Z,77.48
2018-09-04T18:05:16.869Z,80.89
2018-09-04T18:07:49.327Z,81.64
2018-09-04T18:10:22.020Z,81.71
2018-09-04T18:12:54.035Z,82.57
2018-09-04T18:15:24.961Z,83.72
2018-09-04T18:17:53.992Z,83.92
2018-09-04T18:20:30.943Z,84.24
2018-09-04T18:23:01.874Z,83.82
2018-09-04T18:25:32.916Z,84.23
2018-09-04T18:28:01.968Z,84.00
2018-09-04T18:30:32.381Z,84.12
2018-09-04T18:33:05.628Z,84.12
2018-09-04T18:35:35.683Z,84.39
2018-09-04T18:38:04.864Z,84.03
2018-09-04T18:40:44.297Z,84.40
2018-09-04T18:43:13.465Z,84.76
2018-09-04T18:45:50.277Z,84.14
2018-09-04T18:48:23.473Z,83.58
2018-09-04T18:50:58.989Z,84.19
2018-09-04T18:53:27.961Z,85.20
2018-09-04T18:55:56.838Z,85.26
2018-09-04T18:58:36.528Z,85.07
2018-09-04T19:01:05.539Z,85.25
2018-09-04T19:03:44.029Z,84.53
2018-09-04T19:06:14.914Z,83.70
2018-09-04T19:08:45.025Z,83.89
2018-09-04T19:11:28.801Z,84.34
2018-09-04T19:13:59.826Z,83.77
2018-09-04T19:16:49.041Z,83.87
2018-09-04T19:22:25.345Z,84.83
2018-09-04T19:25:00.271Z,84.69
2018-09-04T19:27:29.673Z,84.66
2018-09-04T19:30:02.139Z,85.05
2018-09-04T19:32:35.786Z,84.94
2018-09-04T19:37:58.636Z,86.34
2018-09-04T19:40:38.738Z,86.76
2018-09-04T19:43:08.691Z,87.16
2018-09-04T19:46:00.575Z,87.98
2018-09-04T19:48:29.474Z,88.44
2018-09-04T19:51:12.088Z,89.42
2018-09-04T19:53:57.815Z,89.94
2018-09-04T19:59:26.078Z,90.64
2018-09-04T20:01:56.306Z,91.24
2018-09-04T20:04:26.523Z,90.93
2018-09-04T20:06:56.178Z,91.26
2018-09-04T20:09:27.281Z,92.50
2018-09-04T20:11:56.661Z,92.45
2018-09-04T20:17:18.831Z,92.70
2018-09-04T20:19:54.468Z,93.42
2018-09-04T20:22:29.150Z,93.33
2018-09-04T20:25:05.946Z,93.64
2018-09-04T20:27:47.345Z,93.68
2018-09-04T20:30:26.961Z,93.71
2018-09-04T20:32:55.902Z,93.67
2018-09-04T20:35:25.837Z,94.44
2018-09-04T20:37:59.759Z,94.97
2018-09-04T20:43:34.979Z,94.42
2018-09-04T20:46:09.642Z,94.92
2018-09-04T20:48:39.676Z,94.37
2018-09-04T20:51:08.624Z,94.74
2018-09-04T20:53:37.570Z,94.42
2018-09-04T20:56:06.885Z,94.80
2018-09-04T20:58:47.239Z,94.79
2018-09-04T21:01:30.613Z,94.80
2018-09-04T21:04:10.870Z,94.70
2018-09-04T21:06:45.982Z,95.54
2018-09-04T21:09:49.212Z,95.46
2018-09-04T21:12:20.190Z,95.27
2018-09-04T21:17:46.060Z,96.01
2018-09-04T21:20:15.049Z,95.51
2018-09-04T21:22:45.029Z,96.30
2018-09-04T21:28:23.378Z,95.96
2018-09-04T21:30:53.464Z,95.72
2018-09-04T21:33:22.720Z,96.23
2018-09-04T21:36:03.011Z,96.17
2018-09-04T21:38:32.024Z,96.36
2018-09-04T21:41:13.020Z,96.22
2018-09-04T21:43:42.096Z,96.11
2018-09-04T21:46:11.300Z,96.34
2018-09-04T21:48:41.619Z,96.28
2018-09-04T21:51:10.764Z,95.42
2018-09-04T21:53:47.124Z,95.61
2018-09-04T21:56:21.755Z,96.16
2018-09-04T21:58:50.849Z,95.77
2018-09-04T22:01:19.735Z,95.84
2018-09-04T22:03:49.874Z,96.21
2018-09-04T22:06:18.808Z,96.06
2018-09-04T22:08:58.644Z,95.90
2018-09-04T22:11:44.041Z,95.85
2018-09-04T22:14:12.966Z,95.64
2018-09-04T22:16:41.924Z,95.99
2018-09-04T22:19:10.822Z,95.96
2018-09-04T22:24:46.188Z,95.44
2018-09-04T22:27:25.198Z,94.77
2018-09-04T22:29:54.087Z,95.80
2018-09-04T22:32:23.193Z,95.36
2018-09-04T22:35:04.451Z,95.51
2018-09-04T22:37:35.391Z,95.09
2018-09-04T22:40:23.073Z,94.98
2018-09-04T22:42:51.982Z,94.60
2018-09-04T22:45:20.929Z,94.96
2018-09-04T22:47:49.887Z,95.81
2018-09-04T22:50:24.233Z,95.86
2018-09-04T22:52:53.177Z,96.10
2018-09-04T22:55:22.113Z,95.73
2018-09-04T22:57:53.151Z,95.74
2018-09-04T23:00:27.213Z,95.62
2018-09-04T23:02:58.209Z,95.60
2018-09-04T23:05:27.889Z,96.00
2018-09-04T23:07:56.793Z,96.24
2018-09-04T23:10:42.013Z,96.52
2018-09-04T23:13:23.517Z,96.34
2018-09-04T23:15:52.475Z,96.51
2018-09-04T23:18:21.419Z,96.92
2018-09-04T23:20:50.648Z,96.74
2018-09-04T23:23:19.577Z,96.66
2018-09-04T23:25:55.446Z,96.79
2018-09-04T23:28:24.373Z,96.93
2018-09-04T23:30:53.254Z,97.31
2018-09-04T23:33:22.184Z,97.21
2018-09-04T23:35:51.058Z,97.77
2018-09-04T23:38:23.389Z,98.29
2018-09-04T23:40:52.961Z,98.26
2018-09-04T23:43:21.924Z,97.98
2018-09-04T23:45:50.781Z,98.35
2018-09-04T23:48:25.881Z,98.70
2018-09-04T23:50:54.768Z,99.00
2018-09-04T23:53:23.671Z,98.56
2018-09-04T23:55:52.569Z,98.74
2018-09-04T23:58:27.064Z,98.47
